sensor_id;sensor_type;location;lat;lon;timestamp;temperature;humidity
13223;DHT22;6676;45.192;5.722;2023-04-23T00:00:23;13.10;99.90
13223;DHT22;6676;45.192;5.722;2023-04-23T00:03:17;13.10;99.90
13223;DHT22;6676;45.192;5.722;2023-04-23T00:06:10;13.10;99.90
13223;DHT22;6676;45.192;5.722;2023-04-23T00:11:44;12.90;99.90
13223;DHT22;6676;45.192;5.722;2023-04-23T00:14:36;13.00;99.90
13223;DHT22;6676;45.192;5.722;2023-04-23T00:17:28;12.90;99.90
13223;DHT22;6676;45.192;5.722;2023-04-23T00:20:20;12.90;99.90
13223;DHT22;6676;45.192;5.722;2023-04-23T00:23:12;12.90;99.90
13223;DHT22;6676;45.192;5.722;2023-04-23T00:26:03;12.80;99.90
13223;DHT22;6676;45.192;5.722;2023-04-23T00:31:35;13.00;99.90
13223;DHT22;6676;45.192;5.722;2023-04-23T00:34:28;13.00;99.90
13223;DHT22;6676;45.192;5.722;2023-04-23T00:37:18;13.00;99.90
13223;DHT22;6676;45.192;5.722;2023-04-23T00:40:12;13.10;99.90
13223;DHT22;6676;45.192;5.722;2023-04-23T00:43:04;13.20;99.90
13223;DHT22;6676;45.192;5.722;2023-04-23T00:45:57;13.20;99.90
13223;DHT22;6676;45.192;5.722;2023-04-23T00:48:48;13.30;99.90
13223;DHT22;6676;45.192;5.722;2023-04-23T00:51:42;13.30;99.90
13223;DHT22;6676;45.192;5.722;2023-04-23T00:54:33;13.40;99.90
13223;DHT22;6676;45.192;5.722;2023-04-23T00:57:25;13.40;99.90
13223;DHT22;6676;45.192;5.722;2023-04-23T01:00:17;13.40;99.90
13223;DHT22;6676;45.192;5.722;2023-04-23T01:03:10;13.40;99.90
13223;DHT22;6676;45.192;5.722;2023-04-23T01:06:03;13.30;99.90
13223;DHT22;6676;45.192;5.722;2023-04-23T01:08:54;13.30;99.90
13223;DHT22;6676;45.192;5.722;2023-04-23T01:11:47;13.40;99.90
13223;DHT22;6676;45.192;5.722;2023-04-23T01:14:40;13.40;99.90
13223;DHT22;6676;45.192;5.722;2023-04-23T01:17:32;13.40;99.90
13223;DHT22;6676;45.192;5.722;2023-04-23T01:20:24;13.40;99.90
13223;DHT22;6676;45.192;5.722;2023-04-23T01:23:16;13.50;99.90
13223;DHT22;6676;45.192;5.722;2023-04-23T01:26:07;13.50;99.90
13223;DHT22;6676;45.192;5.722;2023-04-23T01:28:59;13.40;99.90
13223;DHT22;6676;45.192;5.722;2023-04-23T01:31:52;13.40;99.90
13223;DHT22;6676;45.192;5.722;2023-04-23T01:34:44;13.30;99.90
13223;DHT22;6676;45.192;5.722;2023-04-23T01:37:38;13.30;99.90
13223;DHT22;6676;45.192;5.722;2023-04-23T01:40:29;13.20;99.90
13223;DHT22;6676;45.192;5.722;2023-04-23T01:43:22;13.30;99.90
13223;DHT22;6676;45.192;5.722;2023-04-23T01:46:13;13.40;99.90
13223;DHT22;6676;45.192;5.722;2023-04-23T01:49:05;13.50;99.90
13223;DHT22;6676;45.192;5.722;2023-04-23T01:51:57;13.50;99.90
13223;DHT22;6676;45.192;5.722;2023-04-23T01:54:48;13.50;99.90
13223;DHT22;6676;45.192;5.722;2023-04-23T01:57:40;13.60;99.90
13223;DHT22;6676;45.192;5.722;2023-04-23T02:00:31;13.50;99.90
13223;DHT22;6676;45.192;5.722;2023-04-23T02:03:23;13.50;99.90
13223;DHT22;6676;45.192;5.722;2023-04-23T02:06:15;13.40;99.90
13223;DHT22;6676;45.192;5.722;2023-04-23T02:09:07;13.40;99.90
13223;DHT22;6676;45.192;5.722;2023-04-23T02:11:58;13.30;99.90
13223;DHT22;6676;45.192;5.722;2023-04-23T02:14:50;13.30;99.90
13223;DHT22;6676;45.192;5.722;2023-04-23T02:20:22;13.40;99.90
13223;DHT22;6676;45.192;5.722;2023-04-23T02:23:14;13.30;99.90
13223;DHT22;6676;45.192;5.722;2023-04-23T02:26:05;13.30;99.90
13223;DHT22;6676;45.192;5.722;2023-04-23T02:28:57;13.30;99.90
13223;DHT22;6676;45.192;5.722;2023-04-23T02:31:48;13.30;99.90
13223;DHT22;6676;45.192;5.722;2023-04-23T02:34:40;13.30;99.90
13223;DHT22;6676;45.192;5.722;2023-04-23T02:37:32;13.30;99.90
13223;DHT22;6676;45.192;5.722;2023-04-23T02:43:44;13.30;99.90
13223;DHT22;6676;45.192;5.722;2023-04-23T02:46:45;13.20;99.90
13223;DHT22;6676;45.192;5.722;2023-04-23T02:49:36;13.20;99.90
13223;DHT22;6676;45.192;5.722;2023-04-23T02:52:28;13.20;99.90
13223;DHT22;6676;45.192;5.722;2023-04-23T02:55:19;13.20;99.90
13223;DHT22;6676;45.192;5.722;2023-04-23T02:58:11;13.20;99.90
13223;DHT22;6676;45.192;5.722;2023-04-23T03:03:43;13.30;99.90
13223;DHT22;6676;45.192;5.722;2023-04-23T03:06:35;13.40;99.90
13223;DHT22;6676;45.192;5.722;2023-04-23T03:09:26;13.40;99.90
13223;DHT22;6676;45.192;5.722;2023-04-23T03:12:18;13.40;99.90
13223;DHT22;6676;45.192;5.722;2023-04-23T03:15:10;13.50;99.90
13223;DHT22;6676;45.192;5.722;2023-04-23T03:18:02;13.50;99.90
13223;DHT22;6676;45.192;5.722;2023-04-23T03:20:55;13.40;99.90
13223;DHT22;6676;45.192;5.722;2023-04-23T03:23:47;13.40;99.90
13223;DHT22;6676;45.192;5.722;2023-04-23T03:26:38;13.40;99.90
13223;DHT22;6676;45.192;5.722;2023-04-23T03:29:30;13.40;99.90
13223;DHT22;6676;45.192;5.722;2023-04-23T03:32:23;13.40;99.90
13223;DHT22;6676;45.192;5.722;2023-04-23T03:35:14;13.40;99.90
13223;DHT22;6676;45.192;5.722;2023-04-23T03:38:07;13.40;99.90
13223;DHT22;6676;45.192;5.722;2023-04-23T03:40:58;13.40;99.90
13223;DHT22;6676;45.192;5.722;2023-04-23T03:46:30;13.40;99.90
13223;DHT22;6676;45.192;5.722;2023-04-23T03:49:22;13.30;99.90
13223;DHT22;6676;45.192;5.722;2023-04-23T03:52:13;13.30;99.90
13223;DHT22;6676;45.192;5.722;2023-04-23T03:55:07;13.30;99.90
13223;DHT22;6676;45.192;5.722;2023-04-23T03:58:01;13.20;99.90
13223;DHT22;6676;45.192;5.722;2023-04-23T04:03:34;13.20;99.90
13223;DHT22;6676;45.192;5.722;2023-04-23T04:06:25;13.20;99.90
13223;DHT22;6676;45.192;5.722;2023-04-23T04:09:16;13.20;99.90
13223;DHT22;6676;45.192;5.722;2023-04-23T04:12:13;13.10;99.90
13223;DHT22;6676;45.192;5.722;2023-04-23T04:15:06;13.20;99.90
13223;DHT22;6676;45.192;5.722;2023-04-23T04:17:57;13.10;99.90
13223;DHT22;6676;45.192;5.722;2023-04-23T04:20:49;13.20;99.90
13223;DHT22;6676;45.192;5.722;2023-04-23T04:23:43;13.20;99.90
13223;DHT22;6676;45.192;5.722;2023-04-23T04:26:34;13.20;99.90
13223;DHT22;6676;45.192;5.722;2023-04-23T04:29:26;13.10;99.90
13223;DHT22;6676;45.192;5.722;2023-04-23T04:32:17;13.10;99.90
13223;DHT22;6676;45.192;5.722;2023-04-23T04:35:09;13.00;99.90
13223;DHT22;6676;45.192;5.722;2023-04-23T04:38:01;13.10;99.90
13223;DHT22;6676;45.192;5.722;2023-04-23T04:40:54;13.10;99.90
13223;DHT22;6676;45.192;5.722;2023-04-23T04:43:47;13.10;99.90
13223;DHT22;6676;45.192;5.722;2023-04-23T04:46:41;13.10;99.90
13223;DHT22;6676;45.192;5.722;2023-04-23T04:49:33;13.00;99.90
13223;DHT22;6676;45.192;5.722;2023-04-23T04:52:26;13.10;99.90
13223;DHT22;6676;45.192;5.722;2023-04-23T04:55:17;13.10;99.90
13223;DHT22;6676;45.192;5.722;2023-04-23T04:58:08;13.10;99.90
13223;DHT22;6676;45.192;5.722;2023-04-23T05:01:00;13.20;99.90
13223;DHT22;6676;45.192;5.722;2023-04-23T05:03:51;13.10;99.90
13223;DHT22;6676;45.192;5.722;2023-04-23T05:06:43;13.00;99.90
13223;DHT22;6676;45.192;5.722;2023-04-23T05:09:35;13.10;99.90
13223;DHT22;6676;45.192;5.722;2023-04-23T05:12:26;13.00;99.90
13223;DHT22;6676;45.192;5.722;2023-04-23T05:15:18;13.00;99.90
13223;DHT22;6676;45.192;5.722;2023-04-23T05:18:10;13.00;99.90
13223;DHT22;6676;45.192;5.722;2023-04-23T05:21:02;13.00;99.90
13223;DHT22;6676;45.192;5.722;2023-04-23T05:26:34;13.10;99.90
13223;DHT22;6676;45.192;5.722;2023-04-23T05:29:25;13.20;99.90
13223;DHT22;6676;45.192;5.722;2023-04-23T05:34:55;13.10;99.90
13223;DHT22;6676;45.192;5.722;2023-04-23T05:37:49;13.10;99.90
13223;DHT22;6676;45.192;5.722;2023-04-23T05:40:40;13.20;99.90
13223;DHT22;6676;45.192;5.722;2023-04-23T05:43:32;13.20;99.90
13223;DHT22;6676;45.192;5.722;2023-04-23T05:46:23;13.30;99.90
13223;DHT22;6676;45.192;5.722;2023-04-23T05:49:15;13.30;99.90
13223;DHT22;6676;45.192;5.722;2023-04-23T05:52:06;13.20;99.90
13223;DHT22;6676;45.192;5.722;2023-04-23T05:54:58;13.20;99.90
13223;DHT22;6676;45.192;5.722;2023-04-23T05:57:49;13.30;99.90
13223;DHT22;6676;45.192;5.722;2023-04-23T06:00:40;13.30;99.90
13223;DHT22;6676;45.192;5.722;2023-04-23T06:03:32;13.30;99.90
13223;DHT22;6676;45.192;5.722;2023-04-23T06:06:25;13.30;99.90
13223;DHT22;6676;45.192;5.722;2023-04-23T06:09:17;13.40;99.90
13223;DHT22;6676;45.192;5.722;2023-04-23T06:12:10;13.30;99.90
13223;DHT22;6676;45.192;5.722;2023-04-23T06:15:01;13.30;99.90
13223;DHT22;6676;45.192;5.722;2023-04-23T06:17:52;13.30;99.90
13223;DHT22;6676;45.192;5.722;2023-04-23T06:20:44;13.40;99.90
13223;DHT22;6676;45.192;5.722;2023-04-23T06:23:37;13.40;99.90
13223;DHT22;6676;45.192;5.722;2023-04-23T06:26:28;13.50;99.90
13223;DHT22;6676;45.192;5.722;2023-04-23T06:29:22;13.60;99.90
13223;DHT22;6676;45.192;5.722;2023-04-23T06:32:15;13.60;99.90
13223;DHT22;6676;45.192;5.722;2023-04-23T06:35:09;13.50;99.90
13223;DHT22;6676;45.192;5.722;2023-04-23T06:38:00;13.50;99.90
13223;DHT22;6676;45.192;5.722;2023-04-23T06:40:52;13.40;99.90
13223;DHT22;6676;45.192;5.722;2023-04-23T06:43:43;13.50;99.90
13223;DHT22;6676;45.192;5.722;2023-04-23T06:46:43;13.50;99.90
13223;DHT22;6676;45.192;5.722;2023-04-23T06:49:35;13.60;99.90
13223;DHT22;6676;45.192;5.722;2023-04-23T06:52:27;13.70;99.90
13223;DHT22;6676;45.192;5.722;2023-04-23T06:55:27;13.80;99.90
13223;DHT22;6676;45.192;5.722;2023-04-23T06:58:22;13.70;99.90
13223;DHT22;6676;45.192;5.722;2023-04-23T07:01:15;13.70;99.90
13223;DHT22;6676;45.192;5.722;2023-04-23T07:04:07;13.60;99.90
13223;DHT22;6676;45.192;5.722;2023-04-23T07:06:58;13.70;99.90
13223;DHT22;6676;45.192;5.722;2023-04-23T07:09:50;13.60;99.90
13223;DHT22;6676;45.192;5.722;2023-04-23T07:12:42;13.60;99.90
13223;DHT22;6676;45.192;5.722;2023-04-23T07:15:33;13.60;99.90
13223;DHT22;6676;45.192;5.722;2023-04-23T07:18:26;13.60;99.90
13223;DHT22;6676;45.192;5.722;2023-04-23T07:21:18;13.60;99.90
13223;DHT22;6676;45.192;5.722;2023-04-23T07:24:10;13.70;99.90
13223;DHT22;6676;45.192;5.722;2023-04-23T07:27:01;13.70;99.90
13223;DHT22;6676;45.192;5.722;2023-04-23T07:29:53;13.70;99.90
13223;DHT22;6676;45.192;5.722;2023-04-23T07:32:44;13.80;99.90
13223;DHT22;6676;45.192;5.722;2023-04-23T07:35:36;13.90;99.90
13223;DHT22;6676;45.192;5.722;2023-04-23T07:38:29;14.00;99.90
13223;DHT22;6676;45.192;5.722;2023-04-23T07:41:25;14.10;99.90
13223;DHT22;6676;45.192;5.722;2023-04-23T07:44:17;14.20;99.90
13223;DHT22;6676;45.192;5.722;2023-04-23T07:47:12;14.20;99.90
13223;DHT22;6676;45.192;5.722;2023-04-23T07:50:09;14.20;99.90
13223;DHT22;6676;45.192;5.722;2023-04-23T07:53:02;14.40;99.90
13223;DHT22;6676;45.192;5.722;2023-04-23T07:55:54;14.40;99.90
13223;DHT22;6676;45.192;5.722;2023-04-23T07:58:50;14.60;99.90
13223;DHT22;6676;45.192;5.722;2023-04-23T08:01:43;14.70;99.90
13223;DHT22;6676;45.192;5.722;2023-04-23T08:04:37;14.80;99.90
13223;DHT22;6676;45.192;5.722;2023-04-23T08:07:33;14.90;99.90
13223;DHT22;6676;45.192;5.722;2023-04-23T08:10:25;15.00;99.90
13223;DHT22;6676;45.192;5.722;2023-04-23T08:13:17;15.00;99.90
13223;DHT22;6676;45.192;5.722;2023-04-23T08:16:10;15.00;99.90
13223;DHT22;6676;45.192;5.722;2023-04-23T08:19:03;15.00;99.90
13223;DHT22;6676;45.192;5.722;2023-04-23T08:21:58;15.20;99.90
13223;DHT22;6676;45.192;5.722;2023-04-23T08:24:53;15.40;99.90
13223;DHT22;6676;45.192;5.722;2023-04-23T08:27:45;15.50;99.90
13223;DHT22;6676;45.192;5.722;2023-04-23T08:30:39;15.60;99.90
13223;DHT22;6676;45.192;5.722;2023-04-23T08:33:31;15.60;99.90
13223;DHT22;6676;45.192;5.722;2023-04-23T08:36:24;15.60;99.90
13223;DHT22;6676;45.192;5.722;2023-04-23T08:39:18;15.60;99.90
13223;DHT22;6676;45.192;5.722;2023-04-23T08:42:14;15.60;99.90
13223;DHT22;6676;45.192;5.722;2023-04-23T08:45:11;15.50;99.90
13223;DHT22;6676;45.192;5.722;2023-04-23T08:48:04;15.50;99.90
13223;DHT22;6676;45.192;5.722;2023-04-23T08:51:01;15.60;99.90
13223;DHT22;6676;45.192;5.722;2023-04-23T08:53:57;15.70;99.90
13223;DHT22;6676;45.192;5.722;2023-04-23T08:56:56;15.60;99.90
13223;DHT22;6676;45.192;5.722;2023-04-23T08:59:49;15.50;99.90
13223;DHT22;6676;45.192;5.722;2023-04-23T09:02:43;15.50;99.90
13223;DHT22;6676;45.192;5.722;2023-04-23T09:05:37;15.40;99.90
13223;DHT22;6676;45.192;5.722;2023-04-23T09:08:31;15.60;99.90
13223;DHT22;6676;45.192;5.722;2023-04-23T09:11:30;15.80;99.90
13223;DHT22;6676;45.192;5.722;2023-04-23T09:14:23;15.90;99.90
13223;DHT22;6676;45.192;5.722;2023-04-23T09:17:14;16.00;99.90
13223;DHT22;6676;45.192;5.722;2023-04-23T09:20:12;16.10;99.90
13223;DHT22;6676;45.192;5.722;2023-04-23T09:23:07;16.10;99.90
13223;DHT22;6676;45.192;5.722;2023-04-23T09:26:05;16.20;99.90
13223;DHT22;6676;45.192;5.722;2023-04-23T09:29:00;16.30;99.90
13223;DHT22;6676;45.192;5.722;2023-04-23T09:31:57;16.50;99.90
13223;DHT22;6676;45.192;5.722;2023-04-23T09:34:49;16.70;99.90
13223;DHT22;6676;45.192;5.722;2023-04-23T09:37:44;16.80;99.90
13223;DHT22;6676;45.192;5.722;2023-04-23T09:40:45;16.90;99.90
13223;DHT22;6676;45.192;5.722;2023-04-23T09:43:38;17.10;99.90
13223;DHT22;6676;45.192;5.722;2023-04-23T09:46:37;17.20;99.90
13223;DHT22;6676;45.192;5.722;2023-04-23T09:49:32;17.20;99.90
13223;DHT22;6676;45.192;5.722;2023-04-23T09:52:31;17.20;99.90
13223;DHT22;6676;45.192;5.722;2023-04-23T09:55:30;17.30;99.90
13223;DHT22;6676;45.192;5.722;2023-04-23T09:58:25;17.40;99.90
13223;DHT22;6676;45.192;5.722;2023-04-23T10:01:26;17.40;99.90
13223;DHT22;6676;45.192;5.722;2023-04-23T10:04:21;17.60;99.90
13223;DHT22;6676;45.192;5.722;2023-04-23T10:07:17;17.60;99.90
13223;DHT22;6676;45.192;5.722;2023-04-23T10:10:19;17.80;99.90
13223;DHT22;6676;45.192;5.722;2023-04-23T10:13:15;17.80;99.90
13223;DHT22;6676;45.192;5.722;2023-04-23T10:16:09;17.60;99.90
13223;DHT22;6676;45.192;5.722;2023-04-23T10:19:06;17.70;99.90
13223;DHT22;6676;45.192;5.722;2023-04-23T10:22:03;17.80;99.90
13223;DHT22;6676;45.192;5.722;2023-04-23T10:25:03;17.90;99.90
13223;DHT22;6676;45.192;5.722;2023-04-23T10:27:58;17.90;99.90
13223;DHT22;6676;45.192;5.722;2023-04-23T10:30:53;17.90;99.90
13223;DHT22;6676;45.192;5.722;2023-04-23T10:33:48;17.90;99.90
13223;DHT22;6676;45.192;5.722;2023-04-23T10:36:44;17.90;99.90
13223;DHT22;6676;45.192;5.722;2023-04-23T10:39:38;17.90;99.90
13223;DHT22;6676;45.192;5.722;2023-04-23T10:42:34;17.90;99.90
13223;DHT22;6676;45.192;5.722;2023-04-23T10:45:29;18.10;99.90
13223;DHT22;6676;45.192;5.722;2023-04-23T10:48:21;18.00;99.90
13223;DHT22;6676;45.192;5.722;2023-04-23T10:51:13;18.10;99.90
13223;DHT22;6676;45.192;5.722;2023-04-23T10:54:09;18.20;99.90
13223;DHT22;6676;45.192;5.722;2023-04-23T10:57:02;18.40;99.90
13223;DHT22;6676;45.192;5.722;2023-04-23T10:59:57;18.30;99.90
13223;DHT22;6676;45.192;5.722;2023-04-23T11:02:53;18.30;99.90
13223;DHT22;6676;45.192;5.722;2023-04-23T11:05:51;18.30;99.90
13223;DHT22;6676;45.192;5.722;2023-04-23T11:08:52;18.40;99.90
13223;DHT22;6676;45.192;5.722;2023-04-23T11:11:46;18.50;99.90
13223;DHT22;6676;45.192;5.722;2023-04-23T11:14:46;18.60;99.90
13223;DHT22;6676;45.192;5.722;2023-04-23T11:18:00;18.60;99.90
13223;DHT22;6676;45.192;5.722;2023-04-23T11:20:56;18.60;99.90
13223;DHT22;6676;45.192;5.722;2023-04-23T11:23:50;18.70;99.90
13223;DHT22;6676;45.192;5.722;2023-04-23T11:26:43;18.90;99.90
13223;DHT22;6676;45.192;5.722;2023-04-23T11:29:39;19.00;99.90
13223;DHT22;6676;45.192;5.722;2023-04-23T11:32:35;19.00;99.90
13223;DHT22;6676;45.192;5.722;2023-04-23T11:35:32;19.00;99.90
13223;DHT22;6676;45.192;5.722;2023-04-23T11:38:33;19.20;99.90
13223;DHT22;6676;45.192;5.722;2023-04-23T11:41:28;19.30;99.90
13223;DHT22;6676;45.192;5.722;2023-04-23T11:44:24;19.20;99.90
13223;DHT22;6676;45.192;5.722;2023-04-23T11:47:41;19.10;99.90
13223;DHT22;6676;45.192;5.722;2023-04-23T11:50:36;19.10;99.90
13223;DHT22;6676;45.192;5.722;2023-04-23T11:53:37;19.00;99.90
13223;DHT22;6676;45.192;5.722;2023-04-23T11:56:32;19.00;99.90
13223;DHT22;6676;45.192;5.722;2023-04-23T11:59:29;19.10;99.90
13223;DHT22;6676;45.192;5.722;2023-04-23T12:05:06;19.20;99.90
13223;DHT22;6676;45.192;5.722;2023-04-23T12:08:07;19.10;99.90
13223;DHT22;6676;45.192;5.722;2023-04-23T12:11:01;19.10;99.90
13223;DHT22;6676;45.192;5.722;2023-04-23T12:13:55;19.20;99.90
13223;DHT22;6676;45.192;5.722;2023-04-23T12:19:31;19.70;99.90
13223;DHT22;6676;45.192;5.722;2023-04-23T12:22:27;19.80;99.90
13223;DHT22;6676;45.192;5.722;2023-04-23T12:28:05;19.50;99.90
13223;DHT22;6676;45.192;5.722;2023-04-23T12:31:01;19.40;99.90
13223;DHT22;6676;45.192;5.722;2023-04-23T12:34:04;19.40;99.90
13223;DHT22;6676;45.192;5.722;2023-04-23T12:36:57;19.30;99.90
13223;DHT22;6676;45.192;5.722;2023-04-23T12:39:48;19.30;99.90
13223;DHT22;6676;45.192;5.722;2023-04-23T12:42:41;19.30;99.90
13223;DHT22;6676;45.192;5.722;2023-04-23T12:45:37;19.40;99.90
13223;DHT22;6676;45.192;5.722;2023-04-23T12:48:32;19.30;99.90
13223;DHT22;6676;45.192;5.722;2023-04-23T12:51:23;19.30;99.90
13223;DHT22;6676;45.192;5.722;2023-04-23T12:54:15;19.40;99.90
13223;DHT22;6676;45.192;5.722;2023-04-23T12:57:09;19.30;99.90
13223;DHT22;6676;45.192;5.722;2023-04-23T13:00:01;19.30;99.90
13223;DHT22;6676;45.192;5.722;2023-04-23T13:02:54;19.20;99.90
13223;DHT22;6676;45.192;5.722;2023-04-23T13:05:46;19.30;99.90
13223;DHT22;6676;45.192;5.722;2023-04-23T13:08:38;19.40;99.90
13223;DHT22;6676;45.192;5.722;2023-04-23T13:11:33;19.40;99.90
13223;DHT22;6676;45.192;5.722;2023-04-23T13:14:24;19.50;99.90
13223;DHT22;6676;45.192;5.722;2023-04-23T13:17:17;19.70;99.90
13223;DHT22;6676;45.192;5.722;2023-04-23T13:20:11;19.60;99.90
13223;DHT22;6676;45.192;5.722;2023-04-23T13:25:43;19.70;99.90
13223;DHT22;6676;45.192;5.722;2023-04-23T13:28:34;19.80;99.90
13223;DHT22;6676;45.192;5.722;2023-04-23T13:31:29;19.90;99.90
13223;DHT22;6676;45.192;5.722;2023-04-23T13:37:03;19.70;99.90
13223;DHT22;6676;45.192;5.722;2023-04-23T13:39:56;19.60;99.90
13223;DHT22;6676;45.192;5.722;2023-04-23T13:42:48;19.60;99.90
13223;DHT22;6676;45.192;5.722;2023-04-23T13:45:40;19.50;99.90
13223;DHT22;6676;45.192;5.722;2023-04-23T13:48:31;19.70;99.90
13223;DHT22;6676;45.192;5.722;2023-04-23T13:51:22;19.80;99.90
13223;DHT22;6676;45.192;5.722;2023-04-23T13:54:16;19.90;99.90
13223;DHT22;6676;45.192;5.722;2023-04-23T13:57:08;20.00;99.90
13223;DHT22;6676;45.192;5.722;2023-04-23T13:59:59;20.30;99.90
13223;DHT22;6676;45.192;5.722;2023-04-23T14:02:52;20.50;99.90
13223;DHT22;6676;45.192;5.722;2023-04-23T14:05:43;20.90;99.90
13223;DHT22;6676;45.192;5.722;2023-04-23T14:08:37;21.60;99.90
13223;DHT22;6676;45.192;5.722;2023-04-23T14:11:33;23.10;99.90
13223;DHT22;6676;45.192;5.722;2023-04-23T14:14:25;23.50;99.90
13223;DHT22;6676;45.192;5.722;2023-04-23T14:17:16;23.20;99.90
13223;DHT22;6676;45.192;5.722;2023-04-23T14:20:09;22.60;99.90
13223;DHT22;6676;45.192;5.722;2023-04-23T14:23:23;22.70;99.90
13223;DHT22;6676;45.192;5.722;2023-04-23T14:26:02;23.10;99.90
13223;DHT22;6676;45.192;5.722;2023-04-23T14:28:56;23.20;99.90
13223;DHT22;6676;45.192;5.722;2023-04-23T14:31:49;23.40;99.90
13223;DHT22;6676;45.192;5.722;2023-04-23T14:34:43;23.20;99.90
13223;DHT22;6676;45.192;5.722;2023-04-23T14:37:37;23.00;99.90
13223;DHT22;6676;45.192;5.722;2023-04-23T14:40:31;22.80;99.90
13223;DHT22;6676;45.192;5.722;2023-04-23T14:43:26;22.50;99.90
13223;DHT22;6676;45.192;5.722;2023-04-23T14:46:20;22.30;99.90
13223;DHT22;6676;45.192;5.722;2023-04-23T14:49:13;22.10;99.90
13223;DHT22;6676;45.192;5.722;2023-04-23T14:52:06;22.10;99.90
13223;DHT22;6676;45.192;5.722;2023-04-23T14:54:58;22.00;99.90
13223;DHT22;6676;45.192;5.722;2023-04-23T14:57:49;21.80;99.90
13223;DHT22;6676;45.192;5.722;2023-04-23T15:00:41;21.70;99.90
13223;DHT22;6676;45.192;5.722;2023-04-23T15:03:36;21.50;99.90
13223;DHT22;6676;45.192;5.722;2023-04-23T15:06:27;21.10;99.90
13223;DHT22;6676;45.192;5.722;2023-04-23T15:09:19;20.70;99.90
13223;DHT22;6676;45.192;5.722;2023-04-23T15:12:31;20.20;99.90
13223;DHT22;6676;45.192;5.722;2023-04-23T15:15:20;19.50;99.90
13223;DHT22;6676;45.192;5.722;2023-04-23T15:18:13;19.00;99.90
13223;DHT22;6676;45.192;5.722;2023-04-23T15:21:05;18.40;99.90
13223;DHT22;6676;45.192;5.722;2023-04-23T15:23:56;17.40;99.90
13223;DHT22;6676;45.192;5.722;2023-04-23T15:26:48;16.90;99.90
13223;DHT22;6676;45.192;5.722;2023-04-23T15:29:44;16.40;99.90
13223;DHT22;6676;45.192;5.722;2023-04-23T15:32:37;15.60;99.90
13223;DHT22;6676;45.192;5.722;2023-04-23T15:35:29;15.20;99.90
13223;DHT22;6676;45.192;5.722;2023-04-23T15:38:23;14.80;99.90
13223;DHT22;6676;45.192;5.722;2023-04-23T15:41:16;14.60;99.90
13223;DHT22;6676;45.192;5.722;2023-04-23T15:44:11;14.50;99.90
13223;DHT22;6676;45.192;5.722;2023-04-23T15:47:03;14.40;99.90
13223;DHT22;6676;45.192;5.722;2023-04-23T15:49:56;14.40;99.90
13223;DHT22;6676;45.192;5.722;2023-04-23T15:52:49;14.40;99.90
13223;DHT22;6676;45.192;5.722;2023-04-23T15:55:44;14.30;99.90
13223;DHT22;6676;45.192;5.722;2023-04-23T15:58:41;14.20;99.90
13223;DHT22;6676;45.192;5.722;2023-04-23T16:01:37;14.10;99.90
13223;DHT22;6676;45.192;5.722;2023-04-23T16:04:35;14.10;99.90
13223;DHT22;6676;45.192;5.722;2023-04-23T16:07:29;14.20;99.90
13223;DHT22;6676;45.192;5.722;2023-04-23T16:13:05;14.20;99.90
13223;DHT22;6676;45.192;5.722;2023-04-23T16:15:56;14.30;99.90
13223;DHT22;6676;45.192;5.722;2023-04-23T16:18:47;14.30;99.90
13223;DHT22;6676;45.192;5.722;2023-04-23T16:21:40;14.20;99.90
13223;DHT22;6676;45.192;5.722;2023-04-23T16:27:14;13.80;99.90
13223;DHT22;6676;45.192;5.722;2023-04-23T16:30:11;13.40;99.90
13223;DHT22;6676;45.192;5.722;2023-04-23T16:33:03;13.10;99.90
13223;DHT22;6676;45.192;5.722;2023-04-23T16:35:55;13.10;99.90
13223;DHT22;6676;45.192;5.722;2023-04-23T16:38:48;13.00;99.90
13223;DHT22;6676;45.192;5.722;2023-04-23T16:41:39;13.00;99.90
13223;DHT22;6676;45.192;5.722;2023-04-23T16:44:31;13.20;99.90
13223;DHT22;6676;45.192;5.722;2023-04-23T16:47:24;13.30;99.90
13223;DHT22;6676;45.192;5.722;2023-04-23T16:50:16;13.40;99.90
13223;DHT22;6676;45.192;5.722;2023-04-23T16:53:07;13.50;99.90
13223;DHT22;6676;45.192;5.722;2023-04-23T16:55:59;13.40;99.90
13223;DHT22;6676;45.192;5.722;2023-04-23T16:58:50;13.30;99.90
13223;DHT22;6676;45.192;5.722;2023-04-23T17:01:43;13.20;99.90
13223;DHT22;6676;45.192;5.722;2023-04-23T17:04:35;13.20;99.90
13223;DHT22;6676;45.192;5.722;2023-04-23T17:07:30;13.10;99.90
13223;DHT22;6676;45.192;5.722;2023-04-23T17:10:24;13.20;99.90
13223;DHT22;6676;45.192;5.722;2023-04-23T17:13:17;13.20;99.90
13223;DHT22;6676;45.192;5.722;2023-04-23T17:16:08;13.30;99.90
13223;DHT22;6676;45.192;5.722;2023-04-23T17:19:00;13.40;99.90
13223;DHT22;6676;45.192;5.722;2023-04-23T17:21:52;13.40;99.90
13223;DHT22;6676;45.192;5.722;2023-04-23T17:24:44;13.40;99.90
13223;DHT22;6676;45.192;5.722;2023-04-23T17:27:35;13.50;99.90
13223;DHT22;6676;45.192;5.722;2023-04-23T17:30:26;13.50;99.90
13223;DHT22;6676;45.192;5.722;2023-04-23T17:33:18;13.50;99.90
13223;DHT22;6676;45.192;5.722;2023-04-23T17:36:09;13.50;99.90
13223;DHT22;6676;45.192;5.722;2023-04-23T17:39:01;13.50;99.90
13223;DHT22;6676;45.192;5.722;2023-04-23T17:41:53;13.50;99.90
13223;DHT22;6676;45.192;5.722;2023-04-23T17:44:46;13.40;99.90
13223;DHT22;6676;45.192;5.722;2023-04-23T17:47:38;13.40;99.90
13223;DHT22;6676;45.192;5.722;2023-04-23T17:56:13;13.30;99.90
13223;DHT22;6676;45.192;5.722;2023-04-23T17:59:04;13.30;99.90
13223;DHT22;6676;45.192;5.722;2023-04-23T18:01:55;13.30;99.90
13223;DHT22;6676;45.192;5.722;2023-04-23T18:04:47;13.40;99.90
13223;DHT22;6676;45.192;5.722;2023-04-23T18:07:39;13.40;99.90
13223;DHT22;6676;45.192;5.722;2023-04-23T18:10:31;13.40;99.90
13223;DHT22;6676;45.192;5.722;2023-04-23T18:13:22;13.40;99.90
13223;DHT22;6676;45.192;5.722;2023-04-23T18:16:16;13.40;99.90
13223;DHT22;6676;45.192;5.722;2023-04-23T18:19:08;13.40;99.90
13223;DHT22;6676;45.192;5.722;2023-04-23T18:22:00;13.40;99.90
13223;DHT22;6676;45.192;5.722;2023-04-23T18:24:52;13.40;99.90
13223;DHT22;6676;45.192;5.722;2023-04-23T18:27:43;13.40;99.90
13223;DHT22;6676;45.192;5.722;2023-04-23T18:30:36;13.40;99.90
13223;DHT22;6676;45.192;5.722;2023-04-23T18:33:35;13.40;99.90
13223;DHT22;6676;45.192;5.722;2023-04-23T18:36:28;13.40;99.90
13223;DHT22;6676;45.192;5.722;2023-04-23T18:39:20;13.30;99.90
13223;DHT22;6676;45.192;5.722;2023-04-23T18:42:12;13.10;99.90
13223;DHT22;6676;45.192;5.722;2023-04-23T18:47:48;12.90;99.90
13223;DHT22;6676;45.192;5.722;2023-04-23T18:50:46;12.90;99.90
13223;DHT22;6676;45.192;5.722;2023-04-23T18:53:37;12.90;99.90
13223;DHT22;6676;45.192;5.722;2023-04-23T18:56:28;12.90;99.90
13223;DHT22;6676;45.192;5.722;2023-04-23T18:59:20;13.00;99.90
13223;DHT22;6676;45.192;5.722;2023-04-23T19:02:12;13.10;99.90
13223;DHT22;6676;45.192;5.722;2023-04-23T19:05:06;13.10;99.90
13223;DHT22;6676;45.192;5.722;2023-04-23T19:07:58;13.00;99.90
13223;DHT22;6676;45.192;5.722;2023-04-23T19:10:49;13.00;99.90
13223;DHT22;6676;45.192;5.722;2023-04-23T19:13:41;13.00;99.90
13223;DHT22;6676;45.192;5.722;2023-04-23T19:16:33;12.90;99.90
13223;DHT22;6676;45.192;5.722;2023-04-23T19:19:25;12.90;99.90
13223;DHT22;6676;45.192;5.722;2023-04-23T19:22:18;12.90;99.90